<?xml version="1.0" encoding="UTF-8"?>
<gpx version="1.0" creator="Trackator" xmlns:xsi="http://www.w3.org/2001/XMLSchema-instance" xmlns="http://www.topografix.com/GPX/1/0" xmlns:topografix="http://www.topografix.com/GPX/Private/TopoGrafix/0/1" xsi:schemaLocation="http://www.topografix.com/GPX/1/0 http://www.topografix.com/GPX/1/0/gpx.xsd http://www.topografix.com/GPX/Private/TopoGrafix/0/1 http://www.topografix.com/GPX/Private/TopoGrafix/0/1/topografix.xsd">
<metadata>
<link href="http://www.trackator.com">
<text>Trackator</text>
</link>
</metadata>
<time>2015-06-26T10:04:45Z</time>
<trk>
<name>Track: </name>
<desc>General</desc>
<trkseg>
<trkpt lat="53.3479288" lon="18.4463041">
<ele>95</ele>
<time>2015-06-26T10:04:45Z</time>
</trkpt>
<trkpt lat="53.3479287" lon="18.4463041">
<ele>95</ele>
<time>2015-06-26T10:04:47Z</time>
</trkpt>
<trkpt lat="53.3479284" lon="18.4463034">
<ele>95</ele>
<time>2015-06-26T10:04:49Z</time>
</trkpt>
<trkpt lat="53.3479283" lon="18.4463033">
<ele>96</ele>
<time>2015-06-26T10:04:51Z</time>
</trkpt>
<trkpt lat="53.3479285" lon="18.4463015">
<ele>96</ele>
<time>2015-06-26T10:04:53Z</time>
</trkpt>
<trkpt lat="53.3479269" lon="18.4463014">
<ele>96</ele>
<time>2015-06-26T10:04:55Z</time>
</trkpt>
<trkpt lat="53.3479255" lon="18.4463016">
<ele>96</ele>
<time>2015-06-26T10:04:59Z</time>
</trkpt>
<trkpt lat="53.3479254" lon="18.4463015">
<ele>96</ele>
<time>2015-06-26T10:05:01Z</time>
</trkpt>
<trkpt lat="53.3479249" lon="18.4463016">
<ele>96</ele>
<time>2015-06-26T10:05:03Z</time>
</trkpt>
<trkpt lat="53.3479250" lon="18.4463005">
<ele>96</ele>
<time>2015-06-26T10:05:05Z</time>
</trkpt>
<trkpt lat="53.3479248" lon="18.4463010">
<ele>96</ele>
<time>2015-06-26T10:05:07Z</time>
</trkpt>
<trkpt lat="53.347924" lon="18.4463014">
<ele>96</ele>
<time>2015-06-26T10:05:09Z</time>
</trkpt>
<trkpt lat="53.3479236" lon="18.4463010">
<ele>96</ele>
<time>2015-06-26T10:05:13Z</time>
</trkpt>
<trkpt lat="53.3479237" lon="18.4463013">
<ele>96</ele>
<time>2015-06-26T10:05:15Z</time>
</trkpt>
<trkpt lat="53.3479238" lon="18.4463013">
<ele>96</ele>
<time>2015-06-26T10:05:17Z</time>
</trkpt>
<trkpt lat="53.3479231" lon="18.4463017">
<ele>96</ele>
<time>2015-06-26T10:05:19Z</time>
</trkpt>
<trkpt lat="53.3479233" lon="18.4463006">
<ele>96</ele>
<time>2015-06-26T10:05:21Z</time>
</trkpt>
<trkpt lat="53.3479233" lon="18.4463004">
<ele>96</ele>
<time>2015-06-26T10:05:23Z</time>
</trkpt>
<trkpt lat="" lon="">
<ele></ele>
<time>2015-06-26TZ</time>
</trkpt>
</trkseg>
</trk>
<wpt lat="" lon="">
	<name></name>
	<desc></desc>
	<cmt></cmt>
	<photoid></photoid>
	<type></type>
</wpt>
</gpx>
